sensor_id;sensor_type;location;lat;lon;timestamp;temperature;humidity
2907;DHT22;1463;51.070;16.998;2024-03-29T00:01:49;10.80;99.10
2907;DHT22;1463;51.070;16.998;2024-03-29T00:04:14;10.70;99.00
2907;DHT22;1463;51.070;16.998;2024-03-29T00:06:40;10.70;98.90
2907;DHT22;1463;51.070;16.998;2024-03-29T00:09:06;10.70;99.20
2907;DHT22;1463;51.070;16.998;2024-03-29T00:11:32;10.70;99.10
2907;DHT22;1463;51.070;16.998;2024-03-29T00:13:57;10.70;98.90
2907;DHT22;1463;51.070;16.998;2024-03-29T00:16:23;10.70;98.80
2907;DHT22;1463;51.070;16.998;2024-03-29T00:18:51;10.70;98.80
2907;DHT22;1463;51.070;16.998;2024-03-29T00:21:17;10.70;98.80
2907;DHT22;1463;51.070;16.998;2024-03-29T00:23:43;10.60;98.80
2907;DHT22;1463;51.070;16.998;2024-03-29T00:26:09;10.70;98.80
2907;DHT22;1463;51.070;16.998;2024-03-29T00:28:35;10.70;98.80
2907;DHT22;1463;51.070;16.998;2024-03-29T00:31:00;10.60;98.90
2907;DHT22;1463;51.070;16.998;2024-03-29T00:33:26;10.60;98.90
2907;DHT22;1463;51.070;16.998;2024-03-29T00:35:53;10.60;99.00
2907;DHT22;1463;51.070;16.998;2024-03-29T00:38:19;10.50;99.00
2907;DHT22;1463;51.070;16.998;2024-03-29T00:40:45;10.50;99.20
2907;DHT22;1463;51.070;16.998;2024-03-29T00:43:11;10.60;99.20
2907;DHT22;1463;51.070;16.998;2024-03-29T00:45:36;10.60;99.10
2907;DHT22;1463;51.070;16.998;2024-03-29T00:48:03;10.60;99.00
2907;DHT22;1463;51.070;16.998;2024-03-29T00:50:29;10.60;99.00
2907;DHT22;1463;51.070;16.998;2024-03-29T00:52:56;10.60;99.10
2907;DHT22;1463;51.070;16.998;2024-03-29T00:55:21;10.50;99.20
2907;DHT22;1463;51.070;16.998;2024-03-29T00:57:47;10.40;99.30
2907;DHT22;1463;51.070;16.998;2024-03-29T01:00:13;10.40;99.40
2907;DHT22;1463;51.070;16.998;2024-03-29T01:02:39;10.50;99.40
2907;DHT22;1463;51.070;16.998;2024-03-29T01:05:06;10.40;99.90
2907;DHT22;1463;51.070;16.998;2024-03-29T01:07:32;10.30;99.60
2907;DHT22;1463;51.070;16.998;2024-03-29T01:09:59;10.30;99.60
2907;DHT22;1463;51.070;16.998;2024-03-29T01:12:25;10.30;99.90
2907;DHT22;1463;51.070;16.998;2024-03-29T01:14:51;10.30;99.90
2907;DHT22;1463;51.070;16.998;2024-03-29T01:17:17;10.30;99.90
2907;DHT22;1463;51.070;16.998;2024-03-29T01:19:42;10.30;99.90
2907;DHT22;1463;51.070;16.998;2024-03-29T01:22:08;10.30;99.90
2907;DHT22;1463;51.070;16.998;2024-03-29T01:24:34;10.30;99.90
2907;DHT22;1463;51.070;16.998;2024-03-29T01:27:01;10.20;99.90
2907;DHT22;1463;51.070;16.998;2024-03-29T01:29:27;10.20;99.90
2907;DHT22;1463;51.070;16.998;2024-03-29T01:31:53;10.20;99.90
2907;DHT22;1463;51.070;16.998;2024-03-29T01:34:18;10.20;99.90
2907;DHT22;1463;51.070;16.998;2024-03-29T01:36:44;10.20;99.90
2907;DHT22;1463;51.070;16.998;2024-03-29T01:39:10;10.20;99.80
2907;DHT22;1463;51.070;16.998;2024-03-29T01:41:36;10.20;99.90
2907;DHT22;1463;51.070;16.998;2024-03-29T01:44:03;10.20;99.70
2907;DHT22;1463;51.070;16.998;2024-03-29T01:46:31;10.20;99.80
2907;DHT22;1463;51.070;16.998;2024-03-29T01:49:02;10.20;99.80
2907;DHT22;1463;51.070;16.998;2024-03-29T01:51:29;10.20;99.90
2907;DHT22;1463;51.070;16.998;2024-03-29T01:53:56;10.10;99.90
2907;DHT22;1463;51.070;16.998;2024-03-29T01:56:23;10.10;99.90
2907;DHT22;1463;51.070;16.998;2024-03-29T01:58:50;10.10;99.90
2907;DHT22;1463;51.070;16.998;2024-03-29T02:01:20;10.10;99.90
2907;DHT22;1463;51.070;16.998;2024-03-29T02:03:47;10.10;99.90
2907;DHT22;1463;51.070;16.998;2024-03-29T02:06:14;10.20;99.90
2907;DHT22;1463;51.070;16.998;2024-03-29T02:08:41;10.20;99.90
2907;DHT22;1463;51.070;16.998;2024-03-29T02:11:08;10.20;99.90
2907;DHT22;1463;51.070;16.998;2024-03-29T02:13:34;10.10;99.90
2907;DHT22;1463;51.070;16.998;2024-03-29T02:16:02;10.10;99.90
2907;DHT22;1463;51.070;16.998;2024-03-29T02:18:30;10.10;99.90
2907;DHT22;1463;51.070;16.998;2024-03-29T02:20:57;10.00;99.90
2907;DHT22;1463;51.070;16.998;2024-03-29T02:23:26;10.00;99.90
2907;DHT22;1463;51.070;16.998;2024-03-29T02:25:55;10.00;99.90
2907;DHT22;1463;51.070;16.998;2024-03-29T02:28:22;10.00;99.90
2907;DHT22;1463;51.070;16.998;2024-03-29T02:30:49;9.90;99.90
2907;DHT22;1463;51.070;16.998;2024-03-29T02:33:16;9.90;99.90
2907;DHT22;1463;51.070;16.998;2024-03-29T02:35:43;9.80;99.90
2907;DHT22;1463;51.070;16.998;2024-03-29T02:38:09;9.70;99.90
2907;DHT22;1463;51.070;16.998;2024-03-29T02:40:36;9.70;99.90
2907;DHT22;1463;51.070;16.998;2024-03-29T02:43:04;9.60;99.90
2907;DHT22;1463;51.070;16.998;2024-03-29T02:45:30;9.60;99.90
2907;DHT22;1463;51.070;16.998;2024-03-29T02:47:56;9.50;99.90
2907;DHT22;1463;51.070;16.998;2024-03-29T02:50:23;9.50;99.90
2907;DHT22;1463;51.070;16.998;2024-03-29T02:52:49;9.50;99.90
2907;DHT22;1463;51.070;16.998;2024-03-29T02:55:15;9.40;99.90
2907;DHT22;1463;51.070;16.998;2024-03-29T02:57:41;9.40;99.90
2907;DHT22;1463;51.070;16.998;2024-03-29T03:00:10;9.30;99.90
2907;DHT22;1463;51.070;16.998;2024-03-29T03:02:37;9.40;99.90
2907;DHT22;1463;51.070;16.998;2024-03-29T03:05:06;9.30;99.90
2907;DHT22;1463;51.070;16.998;2024-03-29T03:07:32;9.40;99.90
2907;DHT22;1463;51.070;16.998;2024-03-29T03:10:16;9.40;99.90
2907;DHT22;1463;51.070;16.998;2024-03-29T03:12:57;9.40;99.90
2907;DHT22;1463;51.070;16.998;2024-03-29T03:15:25;9.40;99.90
2907;DHT22;1463;51.070;16.998;2024-03-29T03:17:50;9.40;99.90
2907;DHT22;1463;51.070;16.998;2024-03-29T03:20:17;9.40;99.90
2907;DHT22;1463;51.070;16.998;2024-03-29T03:22:43;9.30;99.90
2907;DHT22;1463;51.070;16.998;2024-03-29T03:25:10;9.30;99.90
2907;DHT22;1463;51.070;16.998;2024-03-29T03:27:35;9.20;99.90
2907;DHT22;1463;51.070;16.998;2024-03-29T03:30:03;9.20;99.90
2907;DHT22;1463;51.070;16.998;2024-03-29T03:32:30;9.10;99.90
2907;DHT22;1463;51.070;16.998;2024-03-29T03:34:56;9.10;99.90
2907;DHT22;1463;51.070;16.998;2024-03-29T03:37:22;9.00;99.90
2907;DHT22;1463;51.070;16.998;2024-03-29T03:39:49;8.90;99.90
2907;DHT22;1463;51.070;16.998;2024-03-29T03:42:14;8.90;99.90
2907;DHT22;1463;51.070;16.998;2024-03-29T03:44:41;8.90;99.90
2907;DHT22;1463;51.070;16.998;2024-03-29T03:47:07;8.90;99.90
2907;DHT22;1463;51.070;16.998;2024-03-29T03:49:35;8.90;99.90
2907;DHT22;1463;51.070;16.998;2024-03-29T03:52:01;8.90;99.90
2907;DHT22;1463;51.070;16.998;2024-03-29T03:54:28;8.90;99.90
2907;DHT22;1463;51.070;16.998;2024-03-29T03:56:54;8.80;99.90
2907;DHT22;1463;51.070;16.998;2024-03-29T03:59:21;8.90;99.90
2907;DHT22;1463;51.070;16.998;2024-03-29T04:01:47;8.90;99.90
2907;DHT22;1463;51.070;16.998;2024-03-29T04:04:16;8.80;99.90
2907;DHT22;1463;51.070;16.998;2024-03-29T04:06:43;8.80;99.90
2907;DHT22;1463;51.070;16.998;2024-03-29T04:09:10;8.80;99.90
2907;DHT22;1463;51.070;16.998;2024-03-29T04:11:36;8.80;99.90
2907;DHT22;1463;51.070;16.998;2024-03-29T04:14:03;8.70;99.90
2907;DHT22;1463;51.070;16.998;2024-03-29T04:16:28;8.80;99.90
2907;DHT22;1463;51.070;16.998;2024-03-29T04:18:55;8.70;99.90
2907;DHT22;1463;51.070;16.998;2024-03-29T04:21:21;8.80;99.90
2907;DHT22;1463;51.070;16.998;2024-03-29T04:23:49;8.80;99.90
2907;DHT22;1463;51.070;16.998;2024-03-29T04:26:14;8.70;99.90
2907;DHT22;1463;51.070;16.998;2024-03-29T04:28:41;8.70;99.90
2907;DHT22;1463;51.070;16.998;2024-03-29T04:31:07;8.80;99.90
2907;DHT22;1463;51.070;16.998;2024-03-29T04:33:33;8.70;99.90
2907;DHT22;1463;51.070;16.998;2024-03-29T04:36:02;8.70;99.90
2907;DHT22;1463;51.070;16.998;2024-03-29T04:38:30;8.60;99.90
2907;DHT22;1463;51.070;16.998;2024-03-29T04:40:59;8.60;99.90
2907;DHT22;1463;51.070;16.998;2024-03-29T04:43:27;8.60;99.90
2907;DHT22;1463;51.070;16.998;2024-03-29T04:46:01;8.50;99.90
2907;DHT22;1463;51.070;16.998;2024-03-29T04:48:29;8.50;99.90
2907;DHT22;1463;51.070;16.998;2024-03-29T04:50:56;8.50;99.90
2907;DHT22;1463;51.070;16.998;2024-03-29T04:53:23;8.40;99.90
2907;DHT22;1463;51.070;16.998;2024-03-29T04:55:53;8.50;99.90
2907;DHT22;1463;51.070;16.998;2024-03-29T04:58:21;8.50;99.90
2907;DHT22;1463;51.070;16.998;2024-03-29T05:00:48;8.50;99.90
2907;DHT22;1463;51.070;16.998;2024-03-29T05:03:17;8.50;99.90
2907;DHT22;1463;51.070;16.998;2024-03-29T05:05:44;8.50;99.90
2907;DHT22;1463;51.070;16.998;2024-03-29T05:08:10;8.50;99.90
2907;DHT22;1463;51.070;16.998;2024-03-29T05:10:38;8.50;99.90
2907;DHT22;1463;51.070;16.998;2024-03-29T05:13:05;8.40;99.90
2907;DHT22;1463;51.070;16.998;2024-03-29T05:15:34;8.50;99.90
2907;DHT22;1463;51.070;16.998;2024-03-29T05:18:00;8.40;99.90
2907;DHT22;1463;51.070;16.998;2024-03-29T05:20:27;8.50;99.90
2907;DHT22;1463;51.070;16.998;2024-03-29T05:22:54;8.50;99.90
2907;DHT22;1463;51.070;16.998;2024-03-29T05:25:20;8.40;99.90
2907;DHT22;1463;51.070;16.998;2024-03-29T05:27:49;8.40;99.90
2907;DHT22;1463;51.070;16.998;2024-03-29T05:30:15;8.40;99.90
2907;DHT22;1463;51.070;16.998;2024-03-29T05:32:44;8.40;99.90
2907;DHT22;1463;51.070;16.998;2024-03-29T05:35:10;8.40;99.90
2907;DHT22;1463;51.070;16.998;2024-03-29T05:37:39;8.40;99.90
2907;DHT22;1463;51.070;16.998;2024-03-29T05:40:07;8.40;99.90
2907;DHT22;1463;51.070;16.998;2024-03-29T05:42:34;8.40;99.90
2907;DHT22;1463;51.070;16.998;2024-03-29T05:45:04;8.50;99.90
2907;DHT22;1463;51.070;16.998;2024-03-29T05:47:31;8.50;99.90
2907;DHT22;1463;51.070;16.998;2024-03-29T05:49:59;8.50;99.90
2907;DHT22;1463;51.070;16.998;2024-03-29T05:52:26;8.50;99.90
2907;DHT22;1463;51.070;16.998;2024-03-29T05:54:53;8.60;99.90
2907;DHT22;1463;51.070;16.998;2024-03-29T05:57:20;8.60;99.90
2907;DHT22;1463;51.070;16.998;2024-03-29T05:59:50;8.70;99.90
2907;DHT22;1463;51.070;16.998;2024-03-29T06:02:17;8.70;99.90
2907;DHT22;1463;51.070;16.998;2024-03-29T06:04:44;8.80;99.90
2907;DHT22;1463;51.070;16.998;2024-03-29T06:07:14;8.80;99.90
2907;DHT22;1463;51.070;16.998;2024-03-29T06:09:41;8.90;99.90
2907;DHT22;1463;51.070;16.998;2024-03-29T06:12:08;9.00;99.90
2907;DHT22;1463;51.070;16.998;2024-03-29T06:14:37;9.10;99.90
2907;DHT22;1463;51.070;16.998;2024-03-29T06:17:21;9.20;99.90
2907;DHT22;1463;51.070;16.998;2024-03-29T06:19:50;9.30;99.90
2907;DHT22;1463;51.070;16.998;2024-03-29T06:22:21;9.30;99.90
2907;DHT22;1463;51.070;16.998;2024-03-29T06:24:48;9.40;99.90
2907;DHT22;1463;51.070;16.998;2024-03-29T06:27:17;9.50;99.90
2907;DHT22;1463;51.070;16.998;2024-03-29T06:29:46;9.60;99.90
2907;DHT22;1463;51.070;16.998;2024-03-29T06:32:13;9.60;99.90
2907;DHT22;1463;51.070;16.998;2024-03-29T06:34:40;9.70;99.90
2907;DHT22;1463;51.070;16.998;2024-03-29T06:37:11;9.70;99.90
2907;DHT22;1463;51.070;16.998;2024-03-29T06:39:56;9.90;99.90
2907;DHT22;1463;51.070;16.998;2024-03-29T06:42:29;9.90;99.90
2907;DHT22;1463;51.070;16.998;2024-03-29T06:44:56;9.90;99.90
2907;DHT22;1463;51.070;16.998;2024-03-29T06:47:28;10.00;99.90
2907;DHT22;1463;51.070;16.998;2024-03-29T06:49:54;10.10;99.90
2907;DHT22;1463;51.070;16.998;2024-03-29T06:52:21;10.20;99.90
2907;DHT22;1463;51.070;16.998;2024-03-29T06:54:49;10.40;99.90
2907;DHT22;1463;51.070;16.998;2024-03-29T06:57:18;10.50;99.90
2907;DHT22;1463;51.070;16.998;2024-03-29T06:59:53;10.60;99.90
2907;DHT22;1463;51.070;16.998;2024-03-29T07:02:19;10.70;99.90
2907;DHT22;1463;51.070;16.998;2024-03-29T07:04:46;10.90;99.90
2907;DHT22;1463;51.070;16.998;2024-03-29T07:07:13;10.90;99.90
2907;DHT22;1463;51.070;16.998;2024-03-29T07:09:39;10.90;99.90
2907;DHT22;1463;51.070;16.998;2024-03-29T07:12:07;11.00;99.90
2907;DHT22;1463;51.070;16.998;2024-03-29T07:14:34;11.00;99.90
2907;DHT22;1463;51.070;16.998;2024-03-29T07:17:01;11.10;99.90
2907;DHT22;1463;51.070;16.998;2024-03-29T07:19:28;11.10;99.90
2907;DHT22;1463;51.070;16.998;2024-03-29T07:21:55;11.10;99.90
2907;DHT22;1463;51.070;16.998;2024-03-29T07:24:21;11.10;99.90
2907;DHT22;1463;51.070;16.998;2024-03-29T07:26:48;11.10;99.90
2907;DHT22;1463;51.070;16.998;2024-03-29T07:29:16;11.10;99.90
2907;DHT22;1463;51.070;16.998;2024-03-29T07:31:43;11.10;99.90
2907;DHT22;1463;51.070;16.998;2024-03-29T07:34:10;11.20;99.70
2907;DHT22;1463;51.070;16.998;2024-03-29T07:36:39;11.20;99.50
2907;DHT22;1463;51.070;16.998;2024-03-29T07:39:06;11.20;99.10
2907;DHT22;1463;51.070;16.998;2024-03-29T07:41:33;11.20;99.10
2907;DHT22;1463;51.070;16.998;2024-03-29T07:44:00;11.30;99.00
2907;DHT22;1463;51.070;16.998;2024-03-29T07:46:32;11.40;99.10
2907;DHT22;1463;51.070;16.998;2024-03-29T07:48:59;11.40;99.10
2907;DHT22;1463;51.070;16.998;2024-03-29T07:51:26;11.50;99.10
2907;DHT22;1463;51.070;16.998;2024-03-29T07:53:52;11.60;98.60
2907;DHT22;1463;51.070;16.998;2024-03-29T07:56:19;11.60;98.00
2907;DHT22;1463;51.070;16.998;2024-03-29T07:58:49;11.70;98.00
2907;DHT22;1463;51.070;16.998;2024-03-29T08:01:18;11.80;97.60
2907;DHT22;1463;51.070;16.998;2024-03-29T08:03:46;11.90;97.30
2907;DHT22;1463;51.070;16.998;2024-03-29T08:06:13;12.00;97.00
2907;DHT22;1463;51.070;16.998;2024-03-29T08:08:42;12.10;96.90
2907;DHT22;1463;51.070;16.998;2024-03-29T08:11:08;12.20;96.70
2907;DHT22;1463;51.070;16.998;2024-03-29T08:13:35;12.30;95.90
2907;DHT22;1463;51.070;16.998;2024-03-29T08:16:02;12.40;95.90
2907;DHT22;1463;51.070;16.998;2024-03-29T08:18:31;12.40;95.10
2907;DHT22;1463;51.070;16.998;2024-03-29T08:20:59;12.50;95.00
2907;DHT22;1463;51.070;16.998;2024-03-29T08:23:26;12.70;94.20
2907;DHT22;1463;51.070;16.998;2024-03-29T08:25:52;12.80;94.00
2907;DHT22;1463;51.070;16.998;2024-03-29T08:28:21;13.00;94.10
2907;DHT22;1463;51.070;16.998;2024-03-29T08:30:57;13.20;93.50
2907;DHT22;1463;51.070;16.998;2024-03-29T08:33:24;13.30;92.40
2907;DHT22;1463;51.070;16.998;2024-03-29T08:35:51;13.30;91.50
2907;DHT22;1463;51.070;16.998;2024-03-29T08:38:19;13.50;91.50
2907;DHT22;1463;51.070;16.998;2024-03-29T08:40:45;13.70;91.00
2907;DHT22;1463;51.070;16.998;2024-03-29T08:43:13;14.00;90.70
2907;DHT22;1463;51.070;16.998;2024-03-29T08:45:41;14.30;90.10
2907;DHT22;1463;51.070;16.998;2024-03-29T08:48:08;14.20;89.20
2907;DHT22;1463;51.070;16.998;2024-03-29T08:50:34;14.00;88.40
2907;DHT22;1463;51.070;16.998;2024-03-29T08:53:01;13.80;87.00
2907;DHT22;1463;51.070;16.998;2024-03-29T08:55:30;13.80;87.10
2907;DHT22;1463;51.070;16.998;2024-03-29T08:57:56;13.80;87.20
2907;DHT22;1463;51.070;16.998;2024-03-29T09:00:23;14.30;87.40
2907;DHT22;1463;51.070;16.998;2024-03-29T09:02:50;15.50;84.20
2907;DHT22;1463;51.070;16.998;2024-03-29T09:05:17;16.60;82.30
2907;DHT22;1463;51.070;16.998;2024-03-29T09:07:44;17.00;80.10
2907;DHT22;1463;51.070;16.998;2024-03-29T09:10:11;17.20;77.30
2907;DHT22;1463;51.070;16.998;2024-03-29T09:12:39;17.70;76.10
2907;DHT22;1463;51.070;16.998;2024-03-29T09:15:06;18.60;76.10
2907;DHT22;1463;51.070;16.998;2024-03-29T09:17:38;19.20;72.80
2907;DHT22;1463;51.070;16.998;2024-03-29T09:20:07;20.30;70.70
2907;DHT22;1463;51.070;16.998;2024-03-29T09:22:33;21.90;66.30
2907;DHT22;1463;51.070;16.998;2024-03-29T09:24:59;24.30;62.30
2907;DHT22;1463;51.070;16.998;2024-03-29T09:27:27;24.90;55.40
2907;DHT22;1463;51.070;16.998;2024-03-29T09:29:55;23.50;54.00
2907;DHT22;1463;51.070;16.998;2024-03-29T09:32:22;24.80;55.40
2907;DHT22;1463;51.070;16.998;2024-03-29T09:34:49;26.40;53.40
2907;DHT22;1463;51.070;16.998;2024-03-29T09:37:15;26.50;50.60
2907;DHT22;1463;51.070;16.998;2024-03-29T09:39:43;25.30;51.80
2907;DHT22;1463;51.070;16.998;2024-03-29T09:42:13;25.70;50.00
2907;DHT22;1463;51.070;16.998;2024-03-29T09:44:43;21.80;51.00
2907;DHT22;1463;51.070;16.998;2024-03-29T09:47:16;19.90;52.50
2907;DHT22;1463;51.070;16.998;2024-03-29T09:49:44;18.70;53.90
2907;DHT22;1463;51.070;16.998;2024-03-29T09:52:13;17.60;53.60
2907;DHT22;1463;51.070;16.998;2024-03-29T09:54:41;17.00;54.50
2907;DHT22;1463;51.070;16.998;2024-03-29T09:57:08;16.70;54.60
2907;DHT22;1463;51.070;16.998;2024-03-29T09:59:36;16.40;55.00
2907;DHT22;1463;51.070;16.998;2024-03-29T10:02:08;16.40;56.10
2907;DHT22;1463;51.070;16.998;2024-03-29T10:04:39;16.10;55.10
2907;DHT22;1463;51.070;16.998;2024-03-29T10:07:06;15.80;54.70
2907;DHT22;1463;51.070;16.998;2024-03-29T10:09:36;16.00;55.40
2907;DHT22;1463;51.070;16.998;2024-03-29T10:12:03;17.60;54.60
2907;DHT22;1463;51.070;16.998;2024-03-29T10:14:30;17.60;53.80
2907;DHT22;1463;51.070;16.998;2024-03-29T10:16:57;17.80;54.10
2907;DHT22;1463;51.070;16.998;2024-03-29T10:19:24;17.90;54.40
2907;DHT22;1463;51.070;16.998;2024-03-29T10:21:52;17.90;54.10
2907;DHT22;1463;51.070;16.998;2024-03-29T10:24:19;17.80;54.40
2907;DHT22;1463;51.070;16.998;2024-03-29T10:26:46;17.80;55.30
2907;DHT22;1463;51.070;16.998;2024-03-29T10:29:13;17.80;54.90
2907;DHT22;1463;51.070;16.998;2024-03-29T10:31:40;17.60;54.60
2907;DHT22;1463;51.070;16.998;2024-03-29T10:34:06;17.60;54.70
2907;DHT22;1463;51.070;16.998;2024-03-29T10:36:34;17.50;55.20
2907;DHT22;1463;51.070;16.998;2024-03-29T10:39:09;17.60;54.80
2907;DHT22;1463;51.070;16.998;2024-03-29T10:41:39;17.90;55.30
2907;DHT22;1463;51.070;16.998;2024-03-29T10:44:09;18.10;54.00
2907;DHT22;1463;51.070;16.998;2024-03-29T10:46:37;17.90;52.80
2907;DHT22;1463;51.070;16.998;2024-03-29T10:49:07;17.80;53.70
2907;DHT22;1463;51.070;16.998;2024-03-29T10:51:36;18.00;54.60
2907;DHT22;1463;51.070;16.998;2024-03-29T10:54:06;18.10;53.60
2907;DHT22;1463;51.070;16.998;2024-03-29T10:56:35;18.20;53.90
2907;DHT22;1463;51.070;16.998;2024-03-29T10:59:05;18.10;53.00
2907;DHT22;1463;51.070;16.998;2024-03-29T11:01:33;17.90;53.10
2907;DHT22;1463;51.070;16.998;2024-03-29T11:04:06;17.70;53.90
2907;DHT22;1463;51.070;16.998;2024-03-29T11:06:36;17.70;54.20
2907;DHT22;1463;51.070;16.998;2024-03-29T11:09:10;17.80;53.50
2907;DHT22;1463;51.070;16.998;2024-03-29T11:11:40;17.50;53.50
2907;DHT22;1463;51.070;16.998;2024-03-29T11:14:13;17.40;54.00
2907;DHT22;1463;51.070;16.998;2024-03-29T11:16:41;17.50;54.40
2907;DHT22;1463;51.070;16.998;2024-03-29T11:19:13;17.60;53.80
2907;DHT22;1463;51.070;16.998;2024-03-29T11:21:40;17.60;53.90
2907;DHT22;1463;51.070;16.998;2024-03-29T11:24:10;17.80;54.30
2907;DHT22;1463;51.070;16.998;2024-03-29T11:26:37;17.60;54.10
2907;DHT22;1463;51.070;16.998;2024-03-29T11:29:04;17.60;54.30
2907;DHT22;1463;51.070;16.998;2024-03-29T11:31:30;17.70;55.10
2907;DHT22;1463;51.070;16.998;2024-03-29T11:33:58;17.90;54.60
2907;DHT22;1463;51.070;16.998;2024-03-29T11:36:28;17.60;53.90
2907;DHT22;1463;51.070;16.998;2024-03-29T11:38:57;17.90;55.40
2907;DHT22;1463;51.070;16.998;2024-03-29T11:41:26;17.70;54.30
2907;DHT22;1463;51.070;16.998;2024-03-29T11:43:55;17.60;54.60
2907;DHT22;1463;51.070;16.998;2024-03-29T11:46:22;17.40;54.50
2907;DHT22;1463;51.070;16.998;2024-03-29T11:48:49;17.20;54.80
2907;DHT22;1463;51.070;16.998;2024-03-29T11:51:18;17.50;55.30
2907;DHT22;1463;51.070;16.998;2024-03-29T11:53:47;17.50;54.80
2907;DHT22;1463;51.070;16.998;2024-03-29T11:56:16;17.60;55.00
2907;DHT22;1463;51.070;16.998;2024-03-29T11:58:43;17.80;55.50
2907;DHT22;1463;51.070;16.998;2024-03-29T12:01:11;17.90;55.20
2907;DHT22;1463;51.070;16.998;2024-03-29T12:03:40;17.80;54.40
2907;DHT22;1463;51.070;16.998;2024-03-29T12:06:08;18.10;55.90
2907;DHT22;1463;51.070;16.998;2024-03-29T12:08:36;18.10;54.60
2907;DHT22;1463;51.070;16.998;2024-03-29T12:11:04;18.40;54.90
2907;DHT22;1463;51.070;16.998;2024-03-29T12:13:31;18.40;54.60
2907;DHT22;1463;51.070;16.998;2024-03-29T12:16:00;18.50;55.40
2907;DHT22;1463;51.070;16.998;2024-03-29T12:18:29;18.60;55.20
2907;DHT22;1463;51.070;16.998;2024-03-29T12:20:57;18.70;54.40
2907;DHT22;1463;51.070;16.998;2024-03-29T12:23:24;18.70;54.40
2907;DHT22;1463;51.070;16.998;2024-03-29T12:25:56;18.80;54.20
2907;DHT22;1463;51.070;16.998;2024-03-29T12:28:24;18.80;55.10
2907;DHT22;1463;51.070;16.998;2024-03-29T12:30:51;18.80;53.90
2907;DHT22;1463;51.070;16.998;2024-03-29T12:33:20;18.80;54.00
2907;DHT22;1463;51.070;16.998;2024-03-29T12:35:48;18.80;54.30
2907;DHT22;1463;51.070;16.998;2024-03-29T12:38:18;18.70;54.70
2907;DHT22;1463;51.070;16.998;2024-03-29T12:40:46;18.80;54.80
2907;DHT22;1463;51.070;16.998;2024-03-29T12:43:14;18.60;54.70
2907;DHT22;1463;51.070;16.998;2024-03-29T12:45:43;18.50;55.10
2907;DHT22;1463;51.070;16.998;2024-03-29T12:48:10;18.60;56.00
2907;DHT22;1463;51.070;16.998;2024-03-29T12:50:40;18.70;56.30
2907;DHT22;1463;51.070;16.998;2024-03-29T12:53:08;18.50;55.90
2907;DHT22;1463;51.070;16.998;2024-03-29T12:55:36;18.30;56.50
2907;DHT22;1463;51.070;16.998;2024-03-29T12:58:05;18.10;56.80
2907;DHT22;1463;51.070;16.998;2024-03-29T13:00:34;18.00;58.20
2907;DHT22;1463;51.070;16.998;2024-03-29T13:03:01;18.00;58.20
2907;DHT22;1463;51.070;16.998;2024-03-29T13:05:28;18.00;58.40
2907;DHT22;1463;51.070;16.998;2024-03-29T13:08:01;17.90;58.50
2907;DHT22;1463;51.070;16.998;2024-03-29T13:10:28;17.90;58.80
2907;DHT22;1463;51.070;16.998;2024-03-29T13:12:55;17.90;59.30
2907;DHT22;1463;51.070;16.998;2024-03-29T13:15:23;17.80;59.30
2907;DHT22;1463;51.070;16.998;2024-03-29T13:17:51;17.90;59.70
2907;DHT22;1463;51.070;16.998;2024-03-29T13:20:18;17.80;59.70
2907;DHT22;1463;51.070;16.998;2024-03-29T13:22:46;17.80;59.60
2907;DHT22;1463;51.070;16.998;2024-03-29T13:25:16;17.80;59.60
2907;DHT22;1463;51.070;16.998;2024-03-29T13:27:44;17.80;59.50
2907;DHT22;1463;51.070;16.998;2024-03-29T13:30:12;17.80;60.30
2907;DHT22;1463;51.070;16.998;2024-03-29T13:32:40;17.80;60.40
2907;DHT22;1463;51.070;16.998;2024-03-29T13:35:08;17.90;61.50
2907;DHT22;1463;51.070;16.998;2024-03-29T13:37:36;17.80;60.10
2907;DHT22;1463;51.070;16.998;2024-03-29T13:40:04;17.80;59.80
2907;DHT22;1463;51.070;16.998;2024-03-29T13:42:33;17.80;60.40
2907;DHT22;1463;51.070;16.998;2024-03-29T13:45:00;17.80;61.40
2907;DHT22;1463;51.070;16.998;2024-03-29T13:47:26;17.80;61.40
2907;DHT22;1463;51.070;16.998;2024-03-29T13:49:53;17.80;60.50
2907;DHT22;1463;51.070;16.998;2024-03-29T13:52:22;17.80;61.00
2907;DHT22;1463;51.070;16.998;2024-03-29T13:54:48;17.90;61.20
2907;DHT22;1463;51.070;16.998;2024-03-29T13:57:16;17.90;61.60
2907;DHT22;1463;51.070;16.998;2024-03-29T13:59:45;17.90;61.60
2907;DHT22;1463;51.070;16.998;2024-03-29T14:02:12;17.90;61.70
2907;DHT22;1463;51.070;16.998;2024-03-29T14:04:40;17.90;62.20
2907;DHT22;1463;51.070;16.998;2024-03-29T14:07:08;17.90;62.10
2907;DHT22;1463;51.070;16.998;2024-03-29T14:09:36;17.90;61.30
2907;DHT22;1463;51.070;16.998;2024-03-29T14:12:03;18.00;61.00
2907;DHT22;1463;51.070;16.998;2024-03-29T14:14:30;18.00;60.30
2907;DHT22;1463;51.070;16.998;2024-03-29T14:16:58;17.90;59.50
2907;DHT22;1463;51.070;16.998;2024-03-29T14:19:29;17.90;59.80
2907;DHT22;1463;51.070;16.998;2024-03-29T14:21:57;17.90;60.30
2907;DHT22;1463;51.070;16.998;2024-03-29T14:24:23;17.90;60.30
2907;DHT22;1463;51.070;16.998;2024-03-29T14:26:52;17.90;60.60
2907;DHT22;1463;51.070;16.998;2024-03-29T14:29:22;17.90;60.70
2907;DHT22;1463;51.070;16.998;2024-03-29T14:31:49;17.90;60.50
2907;DHT22;1463;51.070;16.998;2024-03-29T14:34:17;17.90;61.00
2907;DHT22;1463;51.070;16.998;2024-03-29T14:36:45;18.00;61.20
2907;DHT22;1463;51.070;16.998;2024-03-29T14:39:12;18.00;61.70
2907;DHT22;1463;51.070;16.998;2024-03-29T14:41:39;18.10;60.40
2907;DHT22;1463;51.070;16.998;2024-03-29T14:44:06;18.10;60.80
2907;DHT22;1463;51.070;16.998;2024-03-29T14:46:33;18.10;60.00
2907;DHT22;1463;51.070;16.998;2024-03-29T14:49:00;18.10;60.70
2907;DHT22;1463;51.070;16.998;2024-03-29T14:51:31;18.20;61.80
2907;DHT22;1463;51.070;16.998;2024-03-29T14:53:58;18.20;61.20
2907;DHT22;1463;51.070;16.998;2024-03-29T14:56:25;18.30;61.80
2907;DHT22;1463;51.070;16.998;2024-03-29T14:58:51;18.40;60.50
2907;DHT22;1463;51.070;16.998;2024-03-29T15:01:18;18.30;60.20
2907;DHT22;1463;51.070;16.998;2024-03-29T15:03:44;18.30;60.30
2907;DHT22;1463;51.070;16.998;2024-03-29T15:06:11;18.20;60.70
2907;DHT22;1463;51.070;16.998;2024-03-29T15:08:39;18.20;60.60
2907;DHT22;1463;51.070;16.998;2024-03-29T15:11:06;18.20;61.20
2907;DHT22;1463;51.070;16.998;2024-03-29T15:13:33;18.10;60.30
2907;DHT22;1463;51.070;16.998;2024-03-29T15:16:02;18.00;60.90
2907;DHT22;1463;51.070;16.998;2024-03-29T15:18:32;18.00;61.40
2907;DHT22;1463;51.070;16.998;2024-03-29T15:21:00;17.90;61.80
2907;DHT22;1463;51.070;16.998;2024-03-29T15:23:31;17.90;62.60
2907;DHT22;1463;51.070;16.998;2024-03-29T15:26:01;17.80;62.10
2907;DHT22;1463;51.070;16.998;2024-03-29T15:28:28;17.70;62.30
2907;DHT22;1463;51.070;16.998;2024-03-29T15:31:13;17.70;63.10
2907;DHT22;1463;51.070;16.998;2024-03-29T15:33:41;17.70;64.10
2907;DHT22;1463;51.070;16.998;2024-03-29T15:36:08;17.80;64.80
2907;DHT22;1463;51.070;16.998;2024-03-29T15:38:36;17.70;64.30
2907;DHT22;1463;51.070;16.998;2024-03-29T15:41:04;17.60;64.20
2907;DHT22;1463;51.070;16.998;2024-03-29T15:43:32;17.60;64.60
2907;DHT22;1463;51.070;16.998;2024-03-29T15:46:01;17.60;64.80
2907;DHT22;1463;51.070;16.998;2024-03-29T15:48:28;17.60;65.20
2907;DHT22;1463;51.070;16.998;2024-03-29T15:50:55;17.60;64.80
2907;DHT22;1463;51.070;16.998;2024-03-29T15:53:22;17.60;65.20